createdAt,value
2018-07-03T00:00:43.400Z,1.50
2018-07-03T00:03:12.859Z,1.53
2018-07-03T00:05:42.481Z,1.40
2018-07-03T00:08:11.925Z,1.93
2018-07-03T00:10:40.806Z,1.80
2018-07-03T00:13:09.418Z,1.60
2018-07-03T00:15:38.795Z,1.50
2018-07-03T00:18:07.586Z,2.80
2018-07-03T00:20:36.148Z,1.60
2018-07-03T00:23:05.205Z,1.20
2018-07-03T00:25:34.742Z,1.53
2018-07-03T00:28:03.384Z,1.40
2018-07-03T00:30:32.818Z,1.20
2018-07-03T00:33:01.435Z,2.00
2018-07-03T00:35:30.267Z,3.10
2018-07-03T00:37:59.128Z,1.83
2018-07-03T00:40:28.064Z,1.50
2018-07-03T00:42:56.715Z,1.40
2018-07-03T00:45:25.424Z,1.90
2018-07-03T00:47:54.092Z,1.83
2018-07-03T00:50:22.765Z,2.27
2018-07-03T00:52:51.585Z,1.47
2018-07-03T00:55:21.251Z,2.30
2018-07-03T00:57:50.275Z,2.00
2018-07-03T01:00:32.481Z,1.47
2018-07-03T01:03:02.664Z,1.80
2018-07-03T01:05:31.897Z,1.60
2018-07-03T01:08:00.432Z,1.70
2018-07-03T01:10:29.800Z,1.67
2018-07-03T01:12:58.783Z,1.60
2018-07-03T01:15:28.235Z,2.03
2018-07-03T01:17:57.223Z,1.97
2018-07-03T01:20:26.936Z,1.97
2018-07-03T01:22:55.923Z,1.93
2018-07-03T01:25:24.528Z,2.40
2018-07-03T01:27:53.904Z,1.93
2018-07-03T01:30:22.852Z,1.40
2018-07-03T01:32:51.513Z,2.13
2018-07-03T01:35:20.996Z,2.30
2018-07-03T01:37:51.684Z,2.53
2018-07-03T01:40:21.501Z,2.63
2018-07-03T01:42:50.779Z,2.87
2018-07-03T01:45:20.056Z,4.63
2018-07-03T01:47:48.723Z,4.10
2018-07-03T01:53:07.905Z,2.73
2018-07-03T01:55:37.263Z,2.80
2018-07-03T01:58:06.383Z,1.97
2018-07-03T02:00:35.019Z,1.83
2018-07-03T02:03:03.842Z,1.70
2018-07-03T02:05:33.737Z,2.50
2018-07-03T02:08:02.384Z,3.50
2018-07-03T02:10:31.084Z,3.73
2018-07-03T02:12:59.990Z,2.60
2018-07-03T02:15:29.339Z,2.40
2018-07-03T02:17:58.164Z,2.13
2018-07-03T02:20:26.835Z,2.30
2018-07-03T02:22:55.655Z,1.90
2018-07-03T02:25:31.097Z,3.00
2018-07-03T02:27:59.832Z,1.93
2018-07-03T02:30:28.492Z,2.40
2018-07-03T02:32:57.206Z,3.47
2018-07-03T02:35:26.088Z,2.77
2018-07-03T02:37:56.535Z,3.30
2018-07-03T02:40:26.670Z,2.80
2018-07-03T02:42:57.001Z,3.13
2018-07-03T02:45:26.560Z,2.30
2018-07-03T02:47:55.323Z,2.00
2018-07-03T02:50:24.192Z,1.80
2018-07-03T02:52:52.817Z,2.50
2018-07-03T02:55:21.352Z,2.00
2018-07-03T02:57:51.005Z,2.23
2018-07-03T03:00:19.793Z,1.90
2018-07-03T03:02:47.397Z,2.00
2018-07-03T03:05:16.075Z,1.67
2018-07-03T03:07:46.007Z,2.30
2018-07-03T03:10:15.265Z,2.30
2018-07-03T03:12:43.915Z,1.67
2018-07-03T03:15:13.374Z,2.10
2018-07-03T03:17:41.927Z,1.97
2018-07-03T03:20:10.596Z,2.40
2018-07-03T03:22:40.106Z,2.17
2018-07-03T03:25:08.791Z,2.53
2018-07-03T03:27:37.468Z,2.10
2018-07-03T03:30:06.204Z,2.77
2018-07-03T03:32:34.838Z,1.93
2018-07-03T03:35:03.663Z,1.97
2018-07-03T03:37:32.456Z,2.50
2018-07-03T03:40:01.136Z,2.20
2018-07-03T03:42:29.760Z,3.00
2018-07-03T03:44:58.663Z,2.27
2018-07-03T03:47:27.356Z,2.77
2018-07-03T03:49:56.020Z,2.00
2018-07-03T03:52:24.706Z,2.50
2018-07-03T03:54:53.239Z,2.30
2018-07-03T03:57:22.573Z,2.07
2018-07-03T03:59:52.234Z,2.10
2018-07-03T04:02:21.508Z,2.50
2018-07-03T04:04:51.415Z,2.30
2018-07-03T04:07:20.084Z,3.80
2018-07-03T04:09:48.792Z,3.50
2018-07-03T04:12:17.476Z,3.10
2018-07-03T04:14:46.971Z,2.40
2018-07-03T04:17:15.492Z,2.73
2018-07-03T04:19:44.287Z,1.70
2018-07-03T04:22:13.057Z,2.03
2018-07-03T04:24:41.974Z,2.30
2018-07-03T04:27:11.074Z,2.50
2018-07-03T04:29:39.921Z,1.97
2018-07-03T04:32:09.016Z,2.07
2018-07-03T04:34:37.701Z,1.60
2018-07-03T04:37:06.383Z,2.33
2018-07-03T04:39:35.028Z,2.67
2018-07-03T04:42:04.266Z,2.37
2018-07-03T04:44:34.052Z,2.20
2018-07-03T04:47:04.167Z,2.20
2018-07-03T04:49:32.780Z,1.93
2018-07-03T04:52:01.341Z,2.20
2018-07-03T04:54:30.236Z,2.77
2018-07-03T04:56:59.468Z,2.70
2018-07-03T04:59:28.212Z,2.13
2018-07-03T05:01:56.916Z,1.97
2018-07-03T05:04:25.778Z,2.10
2018-07-03T05:06:54.549Z,2.17
2018-07-03T05:09:23.387Z,3.50
2018-07-03T05:11:52.647Z,2.90
2018-07-03T05:14:21.203Z,3.70
2018-07-03T05:16:53.923Z,4.00
2018-07-03T05:19:22.477Z,4.40
2018-07-03T05:21:51.172Z,3.60
2018-07-03T05:24:19.944Z,3.10
2018-07-03T05:26:48.709Z,3.03
2018-07-03T05:29:17.564Z,3.50
2018-07-03T05:31:46.267Z,3.93
2018-07-03T05:34:14.945Z,2.53
2018-07-03T05:36:43.596Z,3.73
2018-07-03T05:39:13.407Z,4.40
2018-07-03T05:41:42.001Z,5.40
2018-07-03T05:44:10.655Z,5.30
2018-07-03T05:46:39.975Z,5.20
2018-07-03T05:49:09.103Z,5.40
2018-07-03T05:51:37.749Z,5.63
2018-07-03T05:54:07.247Z,5.77
2018-07-03T05:56:35.999Z,6.03
2018-07-03T05:59:04.501Z,5.63
2018-07-03T06:01:33.132Z,5.90
2018-07-03T06:04:01.656Z,5.00
2018-07-03T06:06:31.053Z,4.60
2018-07-03T06:08:59.764Z,4.50
2018-07-03T06:11:28.410Z,3.60
2018-07-03T06:13:57.254Z,4.50
2018-07-03T06:16:25.809Z,3.90
2018-07-03T06:18:54.437Z,3.97
2018-07-03T06:21:22.988Z,3.40
2018-07-03T06:23:51.570Z,3.50
2018-07-03T06:26:20.138Z,3.27
2018-07-03T06:28:48.904Z,3.40
2018-07-03T06:31:17.540Z,2.63
2018-07-03T06:33:46.092Z,3.17
2018-07-03T06:36:14.643Z,2.90
2018-07-03T06:38:43.180Z,3.07
2018-07-03T06:41:11.828Z,2.60
2018-07-03T06:43:40.384Z,2.60
2018-07-03T06:46:08.916Z,2.47
2018-07-03T06:48:37.484Z,2.57
2018-07-03T06:51:06.059Z,2.90
2018-07-03T06:53:34.607Z,2.67
2018-07-03T06:56:03.148Z,2.90
2018-07-03T06:58:31.693Z,2.00
2018-07-03T07:01:00.259Z,2.33
2018-07-03T07:03:28.891Z,1.70
2018-07-03T07:05:57.536Z,2.10
2018-07-03T07:08:26.090Z,2.50
2018-07-03T07:10:54.624Z,1.93
2018-07-03T07:13:23.239Z,1.77
2018-07-03T07:15:51.776Z,1.80
2018-07-03T07:18:20.515Z,2.10
2018-07-03T07:20:49.144Z,1.50
2018-07-03T07:23:17.723Z,1.87
2018-07-03T07:25:46.292Z,2.00
2018-07-03T07:28:15.081Z,1.50
2018-07-03T07:30:43.728Z,1.20
2018-07-03T07:33:12.492Z,1.63
2018-07-03T07:35:41.057Z,1.77
2018-07-03T07:38:09.658Z,1.73
2018-07-03T07:40:38.275Z,1.50
2018-07-03T07:43:06.808Z,1.80
2018-07-03T07:45:35.368Z,2.20
2018-07-03T07:48:04.133Z,1.80
2018-07-03T07:50:32.743Z,1.60
2018-07-03T07:53:01.300Z,1.23
2018-07-03T07:55:29.920Z,1.10
2018-07-03T07:57:58.459Z,1.37
2018-07-03T08:00:27.024Z,1.20
2018-07-03T08:02:56.378Z,1.80
2018-07-03T08:05:24.933Z,1.67
2018-07-03T08:07:54.556Z,1.40
2018-07-03T08:10:23.183Z,1.60
2018-07-03T08:12:51.736Z,1.20
2018-07-03T08:15:20.292Z,1.00
2018-07-03T08:17:49.691Z,1.40
2018-07-03T08:20:18.248Z,1.20
2018-07-03T08:22:46.827Z,1.30
2018-07-03T08:25:15.403Z,1.87
2018-07-03T08:27:43.959Z,1.50
2018-07-03T08:30:12.599Z,1.40
2018-07-03T08:32:41.180Z,1.30
2018-07-03T08:35:10.019Z,1.47
2018-07-03T08:37:38.696Z,1.20
2018-07-03T08:40:08.004Z,1.23
2018-07-03T08:42:37.026Z,1.23
2018-07-03T08:45:06.675Z,1.60
2018-07-03T08:47:35.209Z,1.17
2018-07-03T08:50:03.885Z,1.50
2018-07-03T08:52:32.533Z,1.70
2018-07-03T08:55:01.060Z,1.10
2018-07-03T08:57:29.652Z,1.30
2018-07-03T08:59:58.296Z,1.30
2018-07-03T09:02:26.932Z,1.70
2018-07-03T09:04:55.513Z,1.30
2018-07-03T09:07:24.052Z,1.20
2018-07-03T09:09:52.633Z,1.27
2018-07-03T09:12:21.201Z,1.20
2018-07-03T09:14:49.882Z,1.50
2018-07-03T09:17:23.607Z,1.20
2018-07-03T09:19:52.148Z,0.97
2018-07-03T09:22:20.715Z,1.20
2018-07-03T09:24:49.321Z,1.67
2018-07-03T09:27:17.887Z,1.40
2018-07-03T09:29:46.424Z,1.40
2018-07-03T09:32:14.960Z,1.50
2018-07-03T09:34:44.154Z,1.10
2018-07-03T09:37:12.719Z,1.37
2018-07-03T09:39:48.198Z,1.27
2018-07-03T09:42:17.011Z,1.57
2018-07-03T09:44:45.667Z,1.00
2018-07-03T09:47:14.217Z,1.10
2018-07-03T09:49:42.791Z,1.60
2018-07-03T09:52:11.376Z,1.40
2018-07-03T09:54:39.933Z,1.23
2018-07-03T09:57:08.779Z,1.50
2018-07-03T09:59:37.372Z,1.83
2018-07-03T10:02:06.421Z,1.53
2018-07-03T10:04:35.021Z,1.60
2018-07-03T10:07:03.870Z,1.70
2018-07-03T10:09:33.193Z,1.30
2018-07-03T10:12:02.601Z,1.50
2018-07-03T10:14:31.138Z,1.73
2018-07-03T10:16:59.684Z,1.20
2018-07-03T10:19:28.241Z,1.63
2018-07-03T10:21:56.831Z,1.60
2018-07-03T10:24:25.373Z,1.33
2018-07-03T10:26:54.017Z,1.23
2018-07-03T10:29:22.559Z,1.70
2018-07-03T10:31:51.253Z,1.40
2018-07-03T10:34:19.888Z,1.40
2018-07-03T10:36:48.417Z,1.40
2018-07-03T10:39:16.969Z,1.67
2018-07-03T10:41:45.539Z,1.30
2018-07-03T10:44:14.114Z,1.30
2018-07-03T10:46:42.664Z,1.47
2018-07-03T10:49:11.217Z,1.43
2018-07-03T10:51:39.787Z,1.67
2018-07-03T10:54:08.392Z,1.07
2018-07-03T10:56:37.008Z,1.30
2018-07-03T10:59:05.719Z,1.30
2018-07-03T11:01:34.273Z,1.10
2018-07-03T11:04:02.821Z,1.37
2018-07-03T11:06:31.420Z,1.30
2018-07-03T11:08:59.967Z,1.37
2018-07-03T11:11:28.523Z,1.50
2018-07-03T11:13:57.139Z,1.60
2018-07-03T11:16:25.705Z,1.63
2018-07-03T11:18:54.268Z,1.20
2018-07-03T11:21:22.804Z,1.60
2018-07-03T11:23:51.445Z,1.60
2018-07-03T11:26:19.976Z,1.43
2018-07-03T11:28:48.523Z,2.00
2018-07-03T11:31:17.074Z,1.07
2018-07-03T11:33:45.704Z,1.00
2018-07-03T11:36:14.324Z,1.40
2018-07-03T11:38:42.866Z,1.33
2018-07-03T11:41:11.504Z,1.47
2018-07-03T11:43:40.197Z,1.10
2018-07-03T11:46:08.877Z,1.57
2018-07-03T11:48:37.441Z,1.37
2018-07-03T11:51:06.080Z,1.27
2018-07-03T11:53:34.860Z,1.40
2018-07-03T11:56:03.441Z,1.47
2018-07-03T11:58:31.995Z,1.90
2018-07-03T12:01:00.582Z,1.97
2018-07-03T12:03:29.117Z,2.03
2018-07-03T12:05:58.523Z,1.50
2018-07-03T12:08:27.366Z,1.40
2018-07-03T12:10:55.931Z,1.80
2018-07-03T12:13:24.500Z,1.40
2018-07-03T12:15:53.053Z,1.23
2018-07-03T12:18:26.747Z,1.47
2018-07-03T12:20:55.692Z,1.90
2018-07-03T12:23:24.255Z,1.67
2018-07-03T12:25:52.826Z,1.60
2018-07-03T12:28:21.396Z,1.63
2018-07-03T12:30:49.953Z,1.30
2018-07-03T12:33:18.509Z,1.33
2018-07-03T12:35:47.090Z,1.17
2018-07-03T12:38:15.616Z,1.87
2018-07-03T12:40:44.176Z,1.47
2018-07-03T12:43:12.730Z,1.50
2018-07-03T12:45:41.393Z,1.40
2018-07-03T12:48:10.025Z,1.47
2018-07-03T12:50:38.625Z,1.20
2018-07-03T12:53:07.251Z,1.63
2018-07-03T12:55:35.796Z,1.10
2018-07-03T12:58:04.465Z,1.50
2018-07-03T13:00:33.020Z,1.37
2018-07-03T13:03:01.560Z,1.47
2018-07-03T13:05:30.132Z,1.13
2018-07-03T13:07:58.702Z,1.30
2018-07-03T13:10:27.271Z,1.13
2018-07-03T13:12:55.881Z,1.20
2018-07-03T13:15:24.448Z,1.20
2018-07-03T13:17:53.096Z,1.50
2018-07-03T13:20:21.682Z,1.37
2018-07-03T13:22:50.312Z,1.30
2018-07-03T13:25:18.927Z,1.30
2018-07-03T13:27:47.643Z,1.00
2018-07-03T13:30:16.246Z,1.53
2018-07-03T13:32:44.825Z,1.20
2018-07-03T13:35:13.416Z,1.50
2018-07-03T13:37:42.025Z,1.33
2018-07-03T13:40:11.111Z,1.60
2018-07-03T13:42:39.684Z,1.60
2018-07-03T13:45:08.285Z,1.50
2018-07-03T13:47:36.855Z,1.33
2018-07-03T13:50:05.724Z,1.40
2018-07-03T13:52:34.373Z,1.30
2018-07-03T13:55:03.197Z,1.40
2018-07-03T13:57:31.811Z,1.70
2018-07-03T14:00:00.356Z,1.40
2018-07-03T14:02:29.468Z,1.47
2018-07-03T14:04:58.041Z,1.40
2018-07-03T14:07:26.599Z,1.77
2018-07-03T14:09:56.023Z,1.40
2018-07-03T14:12:24.600Z,1.40
2018-07-03T14:14:53.180Z,1.40
2018-07-03T14:17:21.792Z,1.23
2018-07-03T14:19:50.448Z,1.27
2018-07-03T14:22:19.008Z,1.53
2018-07-03T14:24:47.584Z,1.60
2018-07-03T14:27:16.171Z,1.47
2018-07-03T14:29:44.743Z,1.97
2018-07-03T14:32:13.317Z,1.43
2018-07-03T14:34:41.875Z,1.63
2018-07-03T14:37:10.488Z,1.30
2018-07-03T14:39:39.076Z,1.73
2018-07-03T14:42:07.821Z,1.37
2018-07-03T14:44:36.431Z,1.67
2018-07-03T14:47:05.016Z,1.50
2018-07-03T14:49:33.571Z,1.50
2018-07-03T14:52:02.145Z,1.67
2018-07-03T14:54:30.720Z,1.60
2018-07-03T14:56:59.485Z,1.43
2018-07-03T14:59:28.089Z,1.67
2018-07-03T15:01:56.829Z,1.87
2018-07-03T15:04:25.490Z,1.70
2018-07-03T15:06:54.440Z,1.60
2018-07-03T15:09:23.017Z,1.80
2018-07-03T15:11:51.576Z,1.53
2018-07-03T15:14:20.129Z,1.90
2018-07-03T15:16:48.653Z,1.90
2018-07-03T15:19:22.561Z,1.87
2018-07-03T15:21:51.101Z,1.20
2018-07-03T15:24:19.650Z,1.50
2018-07-03T15:26:48.193Z,1.27
2018-07-03T15:29:16.797Z,1.37
2018-07-03T15:31:45.412Z,1.10
2018-07-03T15:34:13.951Z,1.50
2018-07-03T15:36:42.495Z,2.00
2018-07-03T15:39:13.583Z,1.43
2018-07-03T15:41:42.679Z,1.57
2018-07-03T15:44:22.200Z,1.50
2018-07-03T15:46:50.779Z,1.67
2018-07-03T15:49:19.495Z,1.33
2018-07-03T15:51:48.372Z,1.50
2018-07-03T15:54:16.928Z,1.43
2018-07-03T15:56:45.464Z,1.53
2018-07-03T15:59:14.224Z,1.50
2018-07-03T16:01:42.784Z,1.40
2018-07-03T16:05:22.191Z,1.50
2018-07-03T16:08:05.023Z,2.20
2018-07-03T16:10:34.523Z,1.87
2018-07-03T16:13:03.883Z,1.57
2018-07-03T16:15:32.477Z,2.40
2018-07-03T16:18:01.044Z,4.13
2018-07-03T16:20:34.876Z,4.10
2018-07-03T16:23:03.716Z,3.97
2018-07-03T16:25:32.250Z,3.70
2018-07-03T16:28:00.835Z,3.77
2018-07-03T16:30:34.078Z,2.50
2018-07-03T16:33:02.880Z,3.93
2018-07-03T16:35:31.457Z,3.77
2018-07-03T16:38:00.004Z,4.50
2018-07-03T16:40:28.584Z,12.10
2018-07-03T16:42:57.191Z,7.73
2018-07-03T16:45:25.787Z,6.93
2018-07-03T16:47:54.348Z,5.83
2018-07-03T16:50:23.020Z,5.40
2018-07-03T16:52:51.855Z,5.43
2018-07-03T16:55:20.498Z,3.70
2018-07-03T16:57:49.080Z,2.67
2018-07-03T17:00:27.221Z,3.93
2018-07-03T17:02:55.851Z,4.97
2018-07-03T17:05:24.759Z,7.33
2018-07-03T17:07:53.740Z,5.77
2018-07-03T17:10:22.304Z,3.57
2018-07-03T17:12:50.884Z,3.50
2018-07-03T17:15:19.450Z,4.40
2018-07-03T17:17:47.979Z,3.60
2018-07-03T17:20:16.713Z,12.70
2018-07-03T17:22:45.253Z,11.00
2018-07-03T17:25:13.817Z,12.47
2018-07-03T17:27:42.398Z,10.20
2018-07-03T17:30:11.208Z,8.00
2018-07-03T17:32:39.740Z,5.20
2018-07-03T17:35:08.433Z,7.83
2018-07-03T17:37:37.232Z,7.40
2018-07-03T17:40:16.828Z,5.23
2018-07-03T17:42:56.525Z,4.13
2018-07-03T17:45:38.627Z,2.93
2018-07-03T17:48:08.606Z,2.57
2018-07-03T17:50:37.200Z,2.27
2018-07-03T17:53:06.108Z,2.33
2018-07-03T17:55:35.111Z,1.73
2018-07-03T17:58:02.836Z,1.80
2018-07-03T18:00:31.877Z,1.80
2018-07-03T18:03:00.659Z,1.97
2018-07-03T18:05:30.790Z,2.10
2018-07-03T18:07:59.604Z,2.93
2018-07-03T18:10:28.249Z,2.20
2018-07-03T18:12:56.858Z,2.20
2018-07-03T18:15:25.547Z,1.93
2018-07-03T18:17:54.066Z,2.03
2018-07-03T18:20:22.727Z,2.37
2018-07-03T18:22:51.276Z,2.10
2018-07-03T18:25:19.890Z,1.87
2018-07-03T18:27:48.482Z,2.20
2018-07-03T18:30:17.076Z,1.73
2018-07-03T18:32:45.744Z,1.87
2018-07-03T18:35:14.350Z,2.23
2018-07-03T18:37:42.968Z,1.90
2018-07-03T18:40:11.559Z,2.87
2018-07-03T18:42:40.106Z,2.43
2018-07-03T18:45:08.727Z,2.00
2018-07-03T18:47:37.272Z,1.60
2018-07-03T18:50:06.176Z,1.77
2018-07-03T18:52:34.784Z,1.70
2018-07-03T18:55:03.352Z,1.70
2018-07-03T18:57:32.249Z,1.87
2018-07-03T19:00:00.848Z,1.73
2018-07-03T19:02:29.399Z,1.47
2018-07-03T19:04:57.933Z,1.50
2018-07-03T19:07:26.676Z,1.90
2018-07-03T19:09:55.245Z,2.23
2018-07-03T19:12:23.848Z,2.63
2018-07-03T19:14:52.391Z,2.80
2018-07-03T19:17:20.959Z,3.00
2018-07-03T19:19:49.516Z,2.00
2018-07-03T19:22:18.054Z,2.87
2018-07-03T19:24:46.703Z,2.27
2018-07-03T19:27:15.230Z,1.90
2018-07-03T19:29:43.760Z,1.63
2018-07-03T19:32:12.535Z,1.80
2018-07-03T19:34:41.176Z,2.00
2018-07-03T19:37:09.795Z,1.90
2018-07-03T19:39:38.341Z,2.23
2018-07-03T19:42:07.024Z,2.10
2018-07-03T19:44:35.499Z,2.00
2018-07-03T19:47:04.195Z,2.07
2018-07-03T19:49:32.912Z,1.80
2018-07-03T19:52:02.599Z,1.73
2018-07-03T19:54:31.412Z,1.73
2018-07-03T19:57:00.010Z,2.33
2018-07-03T19:59:28.632Z,2.53
2018-07-03T20:01:57.152Z,2.27
2018-07-03T20:04:25.687Z,2.30
2018-07-03T20:06:55.322Z,2.00
2018-07-03T20:09:23.844Z,2.37
2018-07-03T20:11:52.422Z,2.80
2018-07-03T20:14:20.988Z,1.87
2018-07-03T20:16:49.517Z,2.43
2018-07-03T20:19:18.170Z,2.27
2018-07-03T20:21:47.427Z,2.10
2018-07-03T20:24:17.068Z,2.37
2018-07-03T20:26:45.623Z,1.87
2018-07-03T20:29:14.807Z,2.07
2018-07-03T20:31:43.512Z,2.50
2018-07-03T20:34:13.478Z,2.67
2018-07-03T20:36:42.592Z,2.77
2018-07-03T20:39:12.040Z,2.67
2018-07-03T20:41:40.623Z,2.77
2018-07-03T20:44:09.187Z,2.47
2018-07-03T20:46:38.618Z,2.50
2018-07-03T20:49:07.189Z,2.27
2018-07-03T20:51:36.050Z,2.30
2018-07-03T20:54:04.584Z,3.20
2018-07-03T20:56:33.174Z,3.23
2018-07-03T20:59:01.814Z,2.67
2018-07-03T21:01:30.360Z,1.80
2018-07-03T21:03:59.043Z,2.43
2018-07-03T21:06:27.601Z,2.50
2018-07-03T21:08:56.168Z,1.93
2018-07-03T21:11:25.795Z,3.37
2018-07-03T21:13:54.479Z,2.30
2018-07-03T21:16:23.264Z,3.20
2018-07-03T21:18:52.603Z,2.07
2018-07-03T21:21:21.595Z,2.50
2018-07-03T21:23:50.359Z,2.90
2018-07-03T21:26:19.307Z,2.30
2018-07-03T21:28:48.099Z,2.40
2018-07-03T21:31:16.831Z,2.57
2018-07-03T21:33:45.840Z,2.20
2018-07-03T21:36:14.546Z,2.57
2018-07-03T21:38:43.693Z,2.43
2018-07-03T21:41:13.172Z,2.60
2018-07-03T21:43:41.867Z,2.10
2018-07-03T21:46:10.551Z,2.33
2018-07-03T21:48:39.520Z,3.00
2018-07-03T21:51:08.369Z,2.17
2018-07-03T21:53:36.994Z,2.33
2018-07-03T21:56:05.928Z,2.17
2018-07-03T21:58:35.132Z,2.90
2018-07-03T22:01:04.459Z,2.53
2018-07-03T22:03:32.986Z,2.80
2018-07-03T22:06:03.002Z,2.77
2018-07-03T22:08:32.969Z,3.17
2018-07-03T22:11:01.689Z,2.30
2018-07-03T22:13:30.999Z,2.00
2018-07-03T22:15:59.703Z,2.17
2018-07-03T22:18:29.037Z,2.47
2018-07-03T22:20:58.685Z,2.30
2018-07-03T22:23:27.991Z,2.80
2018-07-03T22:25:57.243Z,2.10
2018-07-03T22:28:26.199Z,2.20
2018-07-03T22:30:55.422Z,2.27
2018-07-03T22:33:24.383Z,2.00
2018-07-03T22:35:54.493Z,2.07
2018-07-03T22:38:24.064Z,1.83
2018-07-03T22:40:53.697Z,2.17
2018-07-03T22:43:22.215Z,2.87
2018-07-03T22:45:51.419Z,2.33
2018-07-03T22:51:11.660Z,2.53
2018-07-03T22:53:40.248Z,2.20
2018-07-03T22:56:10.540Z,2.00
2018-07-03T22:58:42.212Z,2.30
2018-07-03T23:01:12.107Z,2.17
2018-07-03T23:03:41.080Z,2.00
2018-07-03T23:06:09.976Z,2.10
2018-07-03T23:08:38.723Z,2.27
2018-07-03T23:11:07.460Z,2.20
2018-07-03T23:13:36.010Z,2.20
2018-07-03T23:16:04.640Z,1.70
2018-07-03T23:18:33.181Z,2.27
2018-07-03T23:21:01.780Z,2.40
2018-07-03T23:23:30.327Z,3.00
2018-07-03T23:25:58.853Z,2.40
2018-07-03T23:28:27.411Z,1.90
2018-07-03T23:30:55.968Z,2.40
2018-07-03T23:33:24.498Z,2.10
2018-07-03T23:35:53.050Z,2.83
2018-07-03T23:38:21.853Z,2.17
2018-07-03T23:40:50.488Z,2.30
2018-07-03T23:43:19.304Z,2.57
2018-07-03T23:45:54.576Z,2.00
2018-07-03T23:48:34.304Z,2.00
2018-07-03T23:51:15.320Z,2.13
2018-07-03T23:53:55.124Z,2.47
2018-07-03T23:56:35.796Z,1.90
2018-07-03T23:59:15.657Z,2.20
